sensor_id;sensor_type;location;lat;lon;timestamp;temperature;humidity
54788;DHT22;59598;48.112;16.280;2023-06-22T00:02:15;20.90;1.00
54788;DHT22;59598;48.112;16.280;2023-06-22T00:04:48;20.90;1.00
54788;DHT22;59598;48.112;16.280;2023-06-22T00:07:23;20.80;1.00
54788;DHT22;59598;48.112;16.280;2023-06-22T00:09:55;20.80;1.00
54788;DHT22;59598;48.112;16.280;2023-06-22T00:12:26;20.80;1.00
54788;DHT22;59598;48.112;16.280;2023-06-22T00:15:00;20.70;1.00
54788;DHT22;59598;48.112;16.280;2023-06-22T00:17:37;20.70;1.00
54788;DHT22;59598;48.112;16.280;2023-06-22T00:20:09;20.70;1.00
54788;DHT22;59598;48.112;16.280;2023-06-22T00:22:41;20.70;1.00
54788;DHT22;59598;48.112;16.280;2023-06-22T00:25:16;20.60;1.00
54788;DHT22;59598;48.112;16.280;2023-06-22T00:27:50;20.60;1.00
54788;DHT22;59598;48.112;16.280;2023-06-22T00:30:26;20.50;1.00
54788;DHT22;59598;48.112;16.280;2023-06-22T00:32:59;20.60;1.00
54788;DHT22;59598;48.112;16.280;2023-06-22T00:35:30;20.50;1.00
54788;DHT22;59598;48.112;16.280;2023-06-22T00:38:02;20.40;1.00
54788;DHT22;59598;48.112;16.280;2023-06-22T00:40:35;20.30;1.00
54788;DHT22;59598;48.112;16.280;2023-06-22T00:43:09;20.30;1.00
54788;DHT22;59598;48.112;16.280;2023-06-22T00:45:42;20.20;1.00
54788;DHT22;59598;48.112;16.280;2023-06-22T00:48:15;20.20;1.30
54788;DHT22;59598;48.112;16.280;2023-06-22T00:50:46;20.10;27.00
54788;DHT22;59598;48.112;16.280;2023-06-22T00:53:23;20.00;65.30
54788;DHT22;59598;48.112;16.280;2023-06-22T00:55:55;20.00;53.80
54788;DHT22;59598;48.112;16.280;2023-06-22T00:58:27;20.00;99.90
54788;DHT22;59598;48.112;16.280;2023-06-22T01:00:58;20.00;99.90
54788;DHT22;59598;48.112;16.280;2023-06-22T01:03:31;20.00;99.90
54788;DHT22;59598;48.112;16.280;2023-06-22T01:06:08;19.90;99.90
54788;DHT22;59598;48.112;16.280;2023-06-22T01:09:12;19.90;99.90
54788;DHT22;59598;48.112;16.280;2023-06-22T01:11:57;19.90;99.90
54788;DHT22;59598;48.112;16.280;2023-06-22T01:14:35;19.90;99.90
54788;DHT22;59598;48.112;16.280;2023-06-22T01:17:12;19.90;99.90
54788;DHT22;59598;48.112;16.280;2023-06-22T01:19:53;19.90;99.90
54788;DHT22;59598;48.112;16.280;2023-06-22T01:22:33;19.80;99.90
54788;DHT22;59598;48.112;16.280;2023-06-22T01:25:17;19.80;70.60
54788;DHT22;59598;48.112;16.280;2023-06-22T01:27:58;19.80;99.90
54788;DHT22;59598;48.112;16.280;2023-06-22T01:30:37;19.80;99.90
54788;DHT22;59598;48.112;16.280;2023-06-22T01:33:14;19.90;99.90
54788;DHT22;59598;48.112;16.280;2023-06-22T01:35:46;19.80;99.90
54788;DHT22;59598;48.112;16.280;2023-06-22T01:38:17;19.80;99.90
54788;DHT22;59598;48.112;16.280;2023-06-22T01:40:50;19.80;99.90
54788;DHT22;59598;48.112;16.280;2023-06-22T01:43:26;19.70;99.90
54788;DHT22;59598;48.112;16.280;2023-06-22T01:46:00;19.70;99.90
54788;DHT22;59598;48.112;16.280;2023-06-22T01:48:38;19.70;99.90
54788;DHT22;59598;48.112;16.280;2023-06-22T01:51:13;19.70;99.90
54788;DHT22;59598;48.112;16.280;2023-06-22T01:53:44;19.70;99.90
54788;DHT22;59598;48.112;16.280;2023-06-22T01:56:17;19.70;99.90
54788;DHT22;59598;48.112;16.280;2023-06-22T01:58:57;19.70;99.90
54788;DHT22;59598;48.112;16.280;2023-06-22T02:01:40;19.60;99.90
54788;DHT22;59598;48.112;16.280;2023-06-22T02:04:28;19.40;99.90
54788;DHT22;59598;48.112;16.280;2023-06-22T02:07:09;19.40;99.90
54788;DHT22;59598;48.112;16.280;2023-06-22T02:09:49;19.30;99.90
54788;DHT22;59598;48.112;16.280;2023-06-22T02:12:25;19.20;99.90
54788;DHT22;59598;48.112;16.280;2023-06-22T02:15:00;19.20;99.90
54788;DHT22;59598;48.112;16.280;2023-06-22T02:17:33;19.20;99.90
54788;DHT22;59598;48.112;16.280;2023-06-22T02:20:11;19.20;99.90
54788;DHT22;59598;48.112;16.280;2023-06-22T02:22:45;19.20;99.90
54788;DHT22;59598;48.112;16.280;2023-06-22T02:25:19;19.20;99.90
54788;DHT22;59598;48.112;16.280;2023-06-22T02:27:51;19.10;99.90
54788;DHT22;59598;48.112;16.280;2023-06-22T02:30:22;19.10;99.90
54788;DHT22;59598;48.112;16.280;2023-06-22T02:32:54;19.10;99.90
54788;DHT22;59598;48.112;16.280;2023-06-22T02:35:31;19.20;99.90
54788;DHT22;59598;48.112;16.280;2023-06-22T02:38:03;19.20;99.90
54788;DHT22;59598;48.112;16.280;2023-06-22T02:40:35;19.20;99.90
54788;DHT22;59598;48.112;16.280;2023-06-22T02:43:07;19.10;99.90
54788;DHT22;59598;48.112;16.280;2023-06-22T02:45:41;19.10;99.90
54788;DHT22;59598;48.112;16.280;2023-06-22T02:48:12;19.10;99.90
54788;DHT22;59598;48.112;16.280;2023-06-22T02:50:44;19.20;99.90
54788;DHT22;59598;48.112;16.280;2023-06-22T02:53:19;19.20;99.90
54788;DHT22;59598;48.112;16.280;2023-06-22T02:55:51;19.20;99.90
54788;DHT22;59598;48.112;16.280;2023-06-22T02:58:28;19.20;99.90
54788;DHT22;59598;48.112;16.280;2023-06-22T03:00:59;19.20;99.90
54788;DHT22;59598;48.112;16.280;2023-06-22T03:03:35;19.20;99.90
54788;DHT22;59598;48.112;16.280;2023-06-22T03:06:07;19.20;99.90
54788;DHT22;59598;48.112;16.280;2023-06-22T03:08:38;19.20;99.90
54788;DHT22;59598;48.112;16.280;2023-06-22T03:11:10;19.30;99.90
54788;DHT22;59598;48.112;16.280;2023-06-22T03:13:43;19.20;99.90
54788;DHT22;59598;48.112;16.280;2023-06-22T03:16:14;19.10;99.90
54788;DHT22;59598;48.112;16.280;2023-06-22T03:18:51;19.10;99.90
54788;DHT22;59598;48.112;16.280;2023-06-22T03:21:29;18.90;99.90
54788;DHT22;59598;48.112;16.280;2023-06-22T03:24:01;18.90;99.90
54788;DHT22;59598;48.112;16.280;2023-06-22T03:26:33;18.80;99.90
54788;DHT22;59598;48.112;16.280;2023-06-22T03:29:08;18.90;99.90
54788;DHT22;59598;48.112;16.280;2023-06-22T03:31:41;18.90;99.90
54788;DHT22;59598;48.112;16.280;2023-06-22T03:34:13;18.90;99.90
54788;DHT22;59598;48.112;16.280;2023-06-22T03:36:44;18.90;99.90
54788;DHT22;59598;48.112;16.280;2023-06-22T03:39:20;18.90;99.90
54788;DHT22;59598;48.112;16.280;2023-06-22T03:41:54;19.00;99.90
54788;DHT22;59598;48.112;16.280;2023-06-22T03:44:26;19.00;99.90
54788;DHT22;59598;48.112;16.280;2023-06-22T03:46:57;19.20;99.90
54788;DHT22;59598;48.112;16.280;2023-06-22T03:49:33;19.30;99.90
54788;DHT22;59598;48.112;16.280;2023-06-22T03:52:07;19.50;99.90
54788;DHT22;59598;48.112;16.280;2023-06-22T03:54:42;19.50;99.90
54788;DHT22;59598;48.112;16.280;2023-06-22T03:57:16;19.50;99.90
54788;DHT22;59598;48.112;16.280;2023-06-22T03:59:50;19.80;99.90
54788;DHT22;59598;48.112;16.280;2023-06-22T04:02:21;19.80;94.00
54788;DHT22;59598;48.112;16.280;2023-06-22T04:04:58;19.80;58.40
54788;DHT22;59598;48.112;16.280;2023-06-22T04:07:34;19.80;67.90
54788;DHT22;59598;48.112;16.280;2023-06-22T04:10:11;19.80;90.40
54788;DHT22;59598;48.112;16.280;2023-06-22T04:12:42;19.80;78.20
54788;DHT22;59598;48.112;16.280;2023-06-22T04:15:16;20.00;49.80
54788;DHT22;59598;48.112;16.280;2023-06-22T04:17:50;20.10;37.50
54788;DHT22;59598;48.112;16.280;2023-06-22T04:20:22;20.20;1.00
54788;DHT22;59598;48.112;16.280;2023-06-22T04:22:54;20.50;1.00
54788;DHT22;59598;48.112;16.280;2023-06-22T04:25:30;20.80;1.00
54788;DHT22;59598;48.112;16.280;2023-06-22T04:28:06;21.30;1.00
54788;DHT22;59598;48.112;16.280;2023-06-22T04:30:43;21.60;1.00
54788;DHT22;59598;48.112;16.280;2023-06-22T04:33:20;22.00;1.00
54788;DHT22;59598;48.112;16.280;2023-06-22T04:35:51;22.20;1.00
54788;DHT22;59598;48.112;16.280;2023-06-22T04:38:25;22.00;1.00
54788;DHT22;59598;48.112;16.280;2023-06-22T04:40:56;21.70;1.00
54788;DHT22;59598;48.112;16.280;2023-06-22T04:43:27;21.50;1.00
54788;DHT22;59598;48.112;16.280;2023-06-22T04:46:02;21.60;1.00
54788;DHT22;59598;48.112;16.280;2023-06-22T04:48:34;21.80;1.00
54788;DHT22;59598;48.112;16.280;2023-06-22T04:51:05;21.70;1.00
54788;DHT22;59598;48.112;16.280;2023-06-22T04:53:40;21.60;1.00
54788;DHT22;59598;48.112;16.280;2023-06-22T04:56:12;21.60;1.00
54788;DHT22;59598;48.112;16.280;2023-06-22T04:58:48;21.50;1.00
54788;DHT22;59598;48.112;16.280;2023-06-22T05:01:22;21.70;1.00
54788;DHT22;59598;48.112;16.280;2023-06-22T05:03:56;22.10;1.00
54788;DHT22;59598;48.112;16.280;2023-06-22T05:06:28;22.60;1.00
54788;DHT22;59598;48.112;16.280;2023-06-22T05:09:02;23.00;1.00
54788;DHT22;59598;48.112;16.280;2023-06-22T05:11:36;23.50;1.00
54788;DHT22;59598;48.112;16.280;2023-06-22T05:14:10;24.00;99.90
54788;DHT22;59598;48.112;16.280;2023-06-22T05:16:42;24.40;99.90
54788;DHT22;59598;48.112;16.280;2023-06-22T05:19:13;24.60;99.90
54788;DHT22;59598;48.112;16.280;2023-06-22T05:21:45;24.90;99.90
54788;DHT22;59598;48.112;16.280;2023-06-22T05:24:16;25.10;70.00
54788;DHT22;59598;48.112;16.280;2023-06-22T05:26:48;25.10;1.00
54788;DHT22;59598;48.112;16.280;2023-06-22T05:29:22;25.30;1.00
54788;DHT22;59598;48.112;16.280;2023-06-22T05:31:54;25.40;1.00
54788;DHT22;59598;48.112;16.280;2023-06-22T05:34:25;25.30;1.00
54788;DHT22;59598;48.112;16.280;2023-06-22T05:37:07;25.50;1.00
54788;DHT22;59598;48.112;16.280;2023-06-22T05:39:41;25.90;1.00
54788;DHT22;59598;48.112;16.280;2023-06-22T05:42:13;25.80;1.00
54788;DHT22;59598;48.112;16.280;2023-06-22T05:44:46;25.60;1.00
54788;DHT22;59598;48.112;16.280;2023-06-22T05:47:18;25.30;1.00
54788;DHT22;59598;48.112;16.280;2023-06-22T05:49:54;25.70;1.00
54788;DHT22;59598;48.112;16.280;2023-06-22T05:52:25;25.70;1.00
54788;DHT22;59598;48.112;16.280;2023-06-22T05:54:59;25.50;1.00
54788;DHT22;59598;48.112;16.280;2023-06-22T05:57:34;25.70;1.00
54788;DHT22;59598;48.112;16.280;2023-06-22T06:00:06;26.30;1.00
54788;DHT22;59598;48.112;16.280;2023-06-22T06:02:44;26.90;1.00
54788;DHT22;59598;48.112;16.280;2023-06-22T06:05:15;26.50;1.00
54788;DHT22;59598;48.112;16.280;2023-06-22T06:07:47;27.30;1.00
54788;DHT22;59598;48.112;16.280;2023-06-22T06:10:18;27.50;1.00
54788;DHT22;59598;48.112;16.280;2023-06-22T06:12:49;28.00;1.00
54788;DHT22;59598;48.112;16.280;2023-06-22T06:15:23;28.20;99.90
54788;DHT22;59598;48.112;16.280;2023-06-22T06:17:57;28.20;99.90
54788;DHT22;59598;48.112;16.280;2023-06-22T06:20:28;28.40;99.90
54788;DHT22;59598;48.112;16.280;2023-06-22T06:23:04;28.50;99.90
54788;DHT22;59598;48.112;16.280;2023-06-22T06:25:36;28.60;99.90
54788;DHT22;59598;48.112;16.280;2023-06-22T06:28:07;28.70;1.00
54788;DHT22;59598;48.112;16.280;2023-06-22T06:30:39;28.80;1.00
54788;DHT22;59598;48.112;16.280;2023-06-22T06:33:11;29.10;1.00
54788;DHT22;59598;48.112;16.280;2023-06-22T06:35:43;29.50;1.00
54788;DHT22;59598;48.112;16.280;2023-06-22T06:38:14;29.60;1.00
54788;DHT22;59598;48.112;16.280;2023-06-22T06:40:45;29.60;1.00
54788;DHT22;59598;48.112;16.280;2023-06-22T06:43:18;29.60;1.00
54788;DHT22;59598;48.112;16.280;2023-06-22T06:45:51;29.50;1.00
54788;DHT22;59598;48.112;16.280;2023-06-22T06:48:23;29.40;1.00
54788;DHT22;59598;48.112;16.280;2023-06-22T06:50:55;29.60;1.00
54788;DHT22;59598;48.112;16.280;2023-06-22T06:53:27;29.70;1.00
54788;DHT22;59598;48.112;16.280;2023-06-22T06:56:01;29.70;1.00
54788;DHT22;59598;48.112;16.280;2023-06-22T06:58:34;29.60;1.00
54788;DHT22;59598;48.112;16.280;2023-06-22T07:01:05;29.70;1.00
54788;DHT22;59598;48.112;16.280;2023-06-22T07:03:37;29.50;1.00
54788;DHT22;59598;48.112;16.280;2023-06-22T07:06:09;29.40;99.90
54788;DHT22;59598;48.112;16.280;2023-06-22T07:08:42;29.10;99.90
54788;DHT22;59598;48.112;16.280;2023-06-22T07:11:15;29.10;99.90
54788;DHT22;59598;48.112;16.280;2023-06-22T07:13:49;29.40;99.90
54788;DHT22;59598;48.112;16.280;2023-06-22T07:16:23;29.50;99.90
54788;DHT22;59598;48.112;16.280;2023-06-22T07:18:59;29.60;99.90
54788;DHT22;59598;48.112;16.280;2023-06-22T07:21:31;29.90;99.90
54788;DHT22;59598;48.112;16.280;2023-06-22T07:24:02;30.10;99.90
54788;DHT22;59598;48.112;16.280;2023-06-22T07:26:34;30.50;99.90
54788;DHT22;59598;48.112;16.280;2023-06-22T07:29:06;30.40;99.90
54788;DHT22;59598;48.112;16.280;2023-06-22T07:31:37;30.40;99.90
54788;DHT22;59598;48.112;16.280;2023-06-22T07:34:14;30.20;99.90
54788;DHT22;59598;48.112;16.280;2023-06-22T07:36:48;30.10;99.90
54788;DHT22;59598;48.112;16.280;2023-06-22T07:39:19;30.50;99.90
54788;DHT22;59598;48.112;16.280;2023-06-22T07:41:56;30.50;99.90
54788;DHT22;59598;48.112;16.280;2023-06-22T07:44:30;30.70;1.00
54788;DHT22;59598;48.112;16.280;2023-06-22T07:47:04;31.00;1.00
54788;DHT22;59598;48.112;16.280;2023-06-22T07:49:38;31.10;1.00
54788;DHT22;59598;48.112;16.280;2023-06-22T07:52:12;31.10;1.00
54788;DHT22;59598;48.112;16.280;2023-06-22T07:54:43;31.30;1.00
54788;DHT22;59598;48.112;16.280;2023-06-22T07:57:18;31.10;1.00
54788;DHT22;59598;48.112;16.280;2023-06-22T07:59:49;31.20;1.00
54788;DHT22;59598;48.112;16.280;2023-06-22T08:02:20;31.10;1.00
54788;DHT22;59598;48.112;16.280;2023-06-22T08:04:52;31.00;1.00
54788;DHT22;59598;48.112;16.280;2023-06-22T08:07:23;31.30;1.00
54788;DHT22;59598;48.112;16.280;2023-06-22T08:09:54;31.10;1.00
54788;DHT22;59598;48.112;16.280;2023-06-22T08:12:25;31.40;1.00
54788;DHT22;59598;48.112;16.280;2023-06-22T08:14:57;31.60;99.90
54788;DHT22;59598;48.112;16.280;2023-06-22T08:17:31;31.50;99.90
54788;DHT22;59598;48.112;16.280;2023-06-22T08:20:05;31.30;99.90
54788;DHT22;59598;48.112;16.280;2023-06-22T08:22:55;31.60;99.90
54788;DHT22;59598;48.112;16.280;2023-06-22T08:25:29;32.00;99.90
54788;DHT22;59598;48.112;16.280;2023-06-22T08:28:01;32.30;99.90
54788;DHT22;59598;48.112;16.280;2023-06-22T08:30:32;32.60;1.00
54788;DHT22;59598;48.112;16.280;2023-06-22T08:33:04;32.60;1.00
54788;DHT22;59598;48.112;16.280;2023-06-22T08:35:39;32.60;1.00
54788;DHT22;59598;48.112;16.280;2023-06-22T08:38:16;32.70;1.00
54788;DHT22;59598;48.112;16.280;2023-06-22T08:40:49;32.40;1.00
54788;DHT22;59598;48.112;16.280;2023-06-22T08:43:20;32.60;1.00
54788;DHT22;59598;48.112;16.280;2023-06-22T08:45:52;32.90;1.00
54788;DHT22;59598;48.112;16.280;2023-06-22T08:48:23;33.10;1.00
54788;DHT22;59598;48.112;16.280;2023-06-22T08:50:54;33.40;1.00
54788;DHT22;59598;48.112;16.280;2023-06-22T08:53:25;33.40;1.00
54788;DHT22;59598;48.112;16.280;2023-06-22T08:55:57;33.70;1.00
54788;DHT22;59598;48.112;16.280;2023-06-22T08:58:30;33.50;99.90
54788;DHT22;59598;48.112;16.280;2023-06-22T09:01:01;33.30;99.90
54788;DHT22;59598;48.112;16.280;2023-06-22T09:03:33;33.20;99.90
54788;DHT22;59598;48.112;16.280;2023-06-22T09:06:09;33.50;99.90
54788;DHT22;59598;48.112;16.280;2023-06-22T09:08:41;33.30;99.90
54788;DHT22;59598;48.112;16.280;2023-06-22T09:11:14;33.30;99.90
54788;DHT22;59598;48.112;16.280;2023-06-22T09:13:46;33.70;1.00
54788;DHT22;59598;48.112;16.280;2023-06-22T09:16:17;33.60;1.00
54788;DHT22;59598;48.112;16.280;2023-06-22T09:18:48;33.10;1.00
54788;DHT22;59598;48.112;16.280;2023-06-22T09:21:20;32.90;99.90
54788;DHT22;59598;48.112;16.280;2023-06-22T09:23:57;33.00;1.00
54788;DHT22;59598;48.112;16.280;2023-06-22T09:26:32;33.30;1.00
54788;DHT22;59598;48.112;16.280;2023-06-22T09:29:08;33.10;1.00
54788;DHT22;59598;48.112;16.280;2023-06-22T09:31:42;32.90;1.00
54788;DHT22;59598;48.112;16.280;2023-06-22T09:34:16;32.90;1.00
54788;DHT22;59598;48.112;16.280;2023-06-22T09:36:52;33.10;1.00
54788;DHT22;59598;48.112;16.280;2023-06-22T09:39:28;33.70;1.00
54788;DHT22;59598;48.112;16.280;2023-06-22T09:42:02;33.90;1.00
54788;DHT22;59598;48.112;16.280;2023-06-22T09:44:33;34.00;1.00
54788;DHT22;59598;48.112;16.280;2023-06-22T09:47:04;34.10;1.00
54788;DHT22;59598;48.112;16.280;2023-06-22T09:49:36;33.90;1.00
54788;DHT22;59598;48.112;16.280;2023-06-22T09:52:13;33.50;1.00
54788;DHT22;59598;48.112;16.280;2023-06-22T09:54:44;33.70;1.00
54788;DHT22;59598;48.112;16.280;2023-06-22T09:57:16;33.90;1.00
54788;DHT22;59598;48.112;16.280;2023-06-22T09:59:48;33.50;1.00
54788;DHT22;59598;48.112;16.280;2023-06-22T10:02:19;33.90;1.00
54788;DHT22;59598;48.112;16.280;2023-06-22T10:04:52;34.20;1.00
54788;DHT22;59598;48.112;16.280;2023-06-22T10:07:26;34.00;1.00
54788;DHT22;59598;48.112;16.280;2023-06-22T10:10:01;34.20;1.00
54788;DHT22;59598;48.112;16.280;2023-06-22T10:12:36;34.10;1.00
54788;DHT22;59598;48.112;16.280;2023-06-22T10:15:10;35.10;1.00
54788;DHT22;59598;48.112;16.280;2023-06-22T10:17:42;35.40;1.00
54788;DHT22;59598;48.112;16.280;2023-06-22T10:20:15;35.20;1.00
54788;DHT22;59598;48.112;16.280;2023-06-22T10:22:55;35.20;1.00
54788;DHT22;59598;48.112;16.280;2023-06-22T10:25:28;35.50;1.00
54788;DHT22;59598;48.112;16.280;2023-06-22T10:28:03;35.60;1.00
54788;DHT22;59598;48.112;16.280;2023-06-22T10:30:34;36.30;1.00
54788;DHT22;59598;48.112;16.280;2023-06-22T10:33:05;36.30;1.00
54788;DHT22;59598;48.112;16.280;2023-06-22T10:35:39;36.80;1.00
54788;DHT22;59598;48.112;16.280;2023-06-22T10:38:13;36.40;1.00
54788;DHT22;59598;48.112;16.280;2023-06-22T10:40:47;36.20;1.00
54788;DHT22;59598;48.112;16.280;2023-06-22T10:43:21;36.70;1.00
54788;DHT22;59598;48.112;16.280;2023-06-22T10:45:52;37.30;1.00
54788;DHT22;59598;48.112;16.280;2023-06-22T10:48:25;37.10;1.00
54788;DHT22;59598;48.112;16.280;2023-06-22T10:50:58;37.50;1.00
54788;DHT22;59598;48.112;16.280;2023-06-22T10:53:29;38.30;1.00
54788;DHT22;59598;48.112;16.280;2023-06-22T10:56:00;38.20;1.00
54788;DHT22;59598;48.112;16.280;2023-06-22T10:58:34;38.30;1.00
54788;DHT22;59598;48.112;16.280;2023-06-22T11:01:05;38.70;1.00
54788;DHT22;59598;48.112;16.280;2023-06-22T11:03:37;39.00;99.90
54788;DHT22;59598;48.112;16.280;2023-06-22T11:06:11;39.40;99.90
54788;DHT22;59598;48.112;16.280;2023-06-22T11:08:44;39.40;99.90
54788;DHT22;59598;48.112;16.280;2023-06-22T11:11:21;39.30;99.90
54788;DHT22;59598;48.112;16.280;2023-06-22T11:13:53;38.80;99.90
54788;DHT22;59598;48.112;16.280;2023-06-22T11:16:24;39.00;99.90
54788;DHT22;59598;48.112;16.280;2023-06-22T11:18:57;38.70;99.90
54788;DHT22;59598;48.112;16.280;2023-06-22T11:21:29;38.30;99.90
54788;DHT22;59598;48.112;16.280;2023-06-22T11:24:02;39.10;99.90
54788;DHT22;59598;48.112;16.280;2023-06-22T11:26:33;39.20;99.90
54788;DHT22;59598;48.112;16.280;2023-06-22T11:29:05;38.70;99.90
54788;DHT22;59598;48.112;16.280;2023-06-22T11:31:36;38.00;72.10
54788;DHT22;59598;48.112;16.280;2023-06-22T11:34:11;37.80;78.70
54788;DHT22;59598;48.112;16.280;2023-06-22T11:36:42;37.80;86.30
54788;DHT22;59598;48.112;16.280;2023-06-22T11:39:18;38.50;92.30
54788;DHT22;59598;48.112;16.280;2023-06-22T11:41:52;39.50;71.60
54788;DHT22;59598;48.112;16.280;2023-06-22T11:44:26;40.70;65.50
54788;DHT22;59598;48.112;16.280;2023-06-22T11:46:57;41.70;38.70
54788;DHT22;59598;48.112;16.280;2023-06-22T11:49:28;40.60;1.00
54788;DHT22;59598;48.112;16.280;2023-06-22T11:52:03;40.00;1.00
54788;DHT22;59598;48.112;16.280;2023-06-22T11:54:36;40.10;1.00
54788;DHT22;59598;48.112;16.280;2023-06-22T11:57:15;40.40;1.00
54788;DHT22;59598;48.112;16.280;2023-06-22T11:59:49;40.70;1.00
54788;DHT22;59598;48.112;16.280;2023-06-22T12:02:24;40.60;1.00
54788;DHT22;59598;48.112;16.280;2023-06-22T12:04:55;40.10;1.00
54788;DHT22;59598;48.112;16.280;2023-06-22T12:07:27;40.00;1.00
54788;DHT22;59598;48.112;16.280;2023-06-22T12:10:01;39.30;1.00
54788;DHT22;59598;48.112;16.280;2023-06-22T12:12:33;40.10;1.00
54788;DHT22;59598;48.112;16.280;2023-06-22T12:15:05;40.10;1.00
54788;DHT22;59598;48.112;16.280;2023-06-22T12:17:38;39.80;1.00
54788;DHT22;59598;48.112;16.280;2023-06-22T12:20:11;40.40;1.00
54788;DHT22;59598;48.112;16.280;2023-06-22T12:22:43;39.80;1.00
54788;DHT22;59598;48.112;16.280;2023-06-22T12:25:14;39.80;1.00
54788;DHT22;59598;48.112;16.280;2023-06-22T12:27:46;40.50;1.00
54788;DHT22;59598;48.112;16.280;2023-06-22T12:30:17;40.30;1.00
54788;DHT22;59598;48.112;16.280;2023-06-22T12:32:48;40.40;1.00
54788;DHT22;59598;48.112;16.280;2023-06-22T12:35:20;40.20;1.00
54788;DHT22;59598;48.112;16.280;2023-06-22T12:37:52;39.20;1.00
54788;DHT22;59598;48.112;16.280;2023-06-22T12:40:24;40.50;1.00
54788;DHT22;59598;48.112;16.280;2023-06-22T12:42:55;40.40;1.00
54788;DHT22;59598;48.112;16.280;2023-06-22T12:45:26;40.00;1.00
54788;DHT22;59598;48.112;16.280;2023-06-22T12:48:00;41.00;1.00
54788;DHT22;59598;48.112;16.280;2023-06-22T12:50:34;41.40;1.00
54788;DHT22;59598;48.112;16.280;2023-06-22T12:53:05;42.10;1.00
54788;DHT22;59598;48.112;16.280;2023-06-22T12:55:38;42.10;99.90
54788;DHT22;59598;48.112;16.280;2023-06-22T12:58:09;40.90;99.90
54788;DHT22;59598;48.112;16.280;2023-06-22T13:00:41;40.00;99.90
54788;DHT22;59598;48.112;16.280;2023-06-22T13:03:12;40.60;99.90
54788;DHT22;59598;48.112;16.280;2023-06-22T13:05:43;41.30;99.90
54788;DHT22;59598;48.112;16.280;2023-06-22T13:08:15;41.90;99.90
54788;DHT22;59598;48.112;16.280;2023-06-22T13:10:48;41.70;99.90
54788;DHT22;59598;48.112;16.280;2023-06-22T13:13:20;41.30;99.90
54788;DHT22;59598;48.112;16.280;2023-06-22T13:15:54;41.70;99.90
54788;DHT22;59598;48.112;16.280;2023-06-22T13:18:29;41.80;99.90
54788;DHT22;59598;48.112;16.280;2023-06-22T13:21:03;42.80;26.40
54788;DHT22;59598;48.112;16.280;2023-06-22T13:23:37;42.10;1.00
54788;DHT22;59598;48.112;16.280;2023-06-22T13:26:11;39.80;1.00
54788;DHT22;59598;48.112;16.280;2023-06-22T13:28:42;39.60;99.90
54788;DHT22;59598;48.112;16.280;2023-06-22T13:31:13;40.60;99.90
54788;DHT22;59598;48.112;16.280;2023-06-22T13:33:47;41.30;16.20
54788;DHT22;59598;48.112;16.280;2023-06-22T13:36:19;40.90;11.80
54788;DHT22;59598;48.112;16.280;2023-06-22T13:38:51;40.60;1.00
54788;DHT22;59598;48.112;16.280;2023-06-22T13:41:23;40.50;55.30
54788;DHT22;59598;48.112;16.280;2023-06-22T13:43:55;40.30;1.00
54788;DHT22;59598;48.112;16.280;2023-06-22T13:46:28;40.60;1.00
54788;DHT22;59598;48.112;16.280;2023-06-22T13:49:00;39.80;1.00
54788;DHT22;59598;48.112;16.280;2023-06-22T13:51:34;39.00;1.00
54788;DHT22;59598;48.112;16.280;2023-06-22T13:54:08;38.30;99.90
54788;DHT22;59598;48.112;16.280;2023-06-22T13:56:42;38.90;99.90
54788;DHT22;59598;48.112;16.280;2023-06-22T13:59:14;39.70;99.90
54788;DHT22;59598;48.112;16.280;2023-06-22T14:01:47;40.60;99.90
54788;DHT22;59598;48.112;16.280;2023-06-22T14:04:18;40.70;99.90
54788;DHT22;59598;48.112;16.280;2023-06-22T14:06:49;40.50;1.00
54788;DHT22;59598;48.112;16.280;2023-06-22T14:09:21;40.00;1.00
54788;DHT22;59598;48.112;16.280;2023-06-22T14:11:54;39.70;1.00
54788;DHT22;59598;48.112;16.280;2023-06-22T14:14:25;40.00;1.00
54788;DHT22;59598;48.112;16.280;2023-06-22T14:16:57;40.90;1.00
54788;DHT22;59598;48.112;16.280;2023-06-22T14:19:31;41.00;1.00
54788;DHT22;59598;48.112;16.280;2023-06-22T14:22:03;39.50;1.00
54788;DHT22;59598;48.112;16.280;2023-06-22T14:24:35;39.20;1.00
54788;DHT22;59598;48.112;16.280;2023-06-22T14:27:09;39.60;1.00
54788;DHT22;59598;48.112;16.280;2023-06-22T14:29:42;39.70;1.00
54788;DHT22;59598;48.112;16.280;2023-06-22T14:32:13;39.90;1.00
54788;DHT22;59598;48.112;16.280;2023-06-22T14:34:44;39.70;1.00
54788;DHT22;59598;48.112;16.280;2023-06-22T14:37:16;39.90;1.00
54788;DHT22;59598;48.112;16.280;2023-06-22T14:39:47;40.30;1.00
54788;DHT22;59598;48.112;16.280;2023-06-22T14:42:19;39.80;1.00
54788;DHT22;59598;48.112;16.280;2023-06-22T14:44:50;38.80;1.00
54788;DHT22;59598;48.112;16.280;2023-06-22T14:47:23;38.00;1.00
54788;DHT22;59598;48.112;16.280;2023-06-22T14:49:54;36.90;99.90
54788;DHT22;59598;48.112;16.280;2023-06-22T14:52:26;36.70;99.90
54788;DHT22;59598;48.112;16.280;2023-06-22T14:54:58;36.30;99.90
54788;DHT22;59598;48.112;16.280;2023-06-22T14:57:31;35.80;99.90
54788;DHT22;59598;48.112;16.280;2023-06-22T15:00:06;35.50;99.90
54788;DHT22;59598;48.112;16.280;2023-06-22T15:02:40;35.50;99.90
54788;DHT22;59598;48.112;16.280;2023-06-22T15:05:14;35.10;99.90
54788;DHT22;59598;48.112;16.280;2023-06-22T15:07:45;35.30;99.90
54788;DHT22;59598;48.112;16.280;2023-06-22T15:10:17;36.20;99.90
54788;DHT22;59598;48.112;16.280;2023-06-22T15:12:48;36.70;99.90
54788;DHT22;59598;48.112;16.280;2023-06-22T15:15:20;37.60;99.90
54788;DHT22;59598;48.112;16.280;2023-06-22T15:17:51;37.70;99.90
54788;DHT22;59598;48.112;16.280;2023-06-22T15:20:22;37.90;99.90
54788;DHT22;59598;48.112;16.280;2023-06-22T15:22:53;37.90;99.90
54788;DHT22;59598;48.112;16.280;2023-06-22T15:25:25;37.30;99.90
54788;DHT22;59598;48.112;16.280;2023-06-22T15:27:57;37.80;99.90
54788;DHT22;59598;48.112;16.280;2023-06-22T15:30:30;38.40;99.90
54788;DHT22;59598;48.112;16.280;2023-06-22T15:33:02;37.90;99.90
54788;DHT22;59598;48.112;16.280;2023-06-22T15:35:34;36.10;99.90
54788;DHT22;59598;48.112;16.280;2023-06-22T15:38:05;35.70;99.90
54788;DHT22;59598;48.112;16.280;2023-06-22T15:40:37;35.50;99.90
54788;DHT22;59598;48.112;16.280;2023-06-22T15:43:12;35.20;99.90
54788;DHT22;59598;48.112;16.280;2023-06-22T15:45:46;35.30;99.90
54788;DHT22;59598;48.112;16.280;2023-06-22T15:48:18;35.50;99.90
54788;DHT22;59598;48.112;16.280;2023-06-22T15:50:49;34.70;99.90
54788;DHT22;59598;48.112;16.280;2023-06-22T15:53:23;34.50;99.90
54788;DHT22;59598;48.112;16.280;2023-06-22T15:55:54;34.50;99.90
54788;DHT22;59598;48.112;16.280;2023-06-22T15:58:26;34.30;99.90
54788;DHT22;59598;48.112;16.280;2023-06-22T16:00:57;34.40;99.90